sensor_id;sensor_type;location;lat;lon;timestamp;temperature;humidity
31038;DHT22;17702;47.590;7.666;2022-08-18T00:01:00;19.00;91.40
31038;DHT22;17702;47.590;7.666;2022-08-18T00:03:27;19.00;91.50
31038;DHT22;17702;47.590;7.666;2022-08-18T00:05:54;19.00;91.90
31038;DHT22;17702;47.590;7.666;2022-08-18T00:08:19;19.20;91.80
31038;DHT22;17702;47.590;7.666;2022-08-18T00:10:45;19.10;91.80
31038;DHT22;17702;47.590;7.666;2022-08-18T00:13:11;19.10;91.60
31038;DHT22;17702;47.590;7.666;2022-08-18T00:15:36;19.20;91.50
31038;DHT22;17702;47.590;7.666;2022-08-18T00:18:02;19.10;91.70
31038;DHT22;17702;47.590;7.666;2022-08-18T00:20:28;19.10;91.60
31038;DHT22;17702;47.590;7.666;2022-08-18T00:22:53;19.10;91.50
31038;DHT22;17702;47.590;7.666;2022-08-18T00:25:21;19.20;91.60
31038;DHT22;17702;47.590;7.666;2022-08-18T00:27:47;19.10;91.60
31038;DHT22;17702;47.590;7.666;2022-08-18T00:30:17;19.20;91.10
31038;DHT22;17702;47.590;7.666;2022-08-18T00:32:47;19.10;91.60
31038;DHT22;17702;47.590;7.666;2022-08-18T00:35:16;19.10;91.50
31038;DHT22;17702;47.590;7.666;2022-08-18T00:37:43;19.10;91.30
31038;DHT22;17702;47.590;7.666;2022-08-18T00:40:13;19.10;91.30
31038;DHT22;17702;47.590;7.666;2022-08-18T00:42:53;19.00;91.30
31038;DHT22;17702;47.590;7.666;2022-08-18T00:45:23;18.90;91.60
31038;DHT22;17702;47.590;7.666;2022-08-18T00:47:50;18.90;91.80
31038;DHT22;17702;47.590;7.666;2022-08-18T00:50:27;19.00;91.50
31038;DHT22;17702;47.590;7.666;2022-08-18T00:53:00;19.00;91.50
31038;DHT22;17702;47.590;7.666;2022-08-18T00:55:29;19.00;91.50
31038;DHT22;17702;47.590;7.666;2022-08-18T00:57:59;19.00;91.60
31038;DHT22;17702;47.590;7.666;2022-08-18T01:00:27;19.10;91.60
31038;DHT22;17702;47.590;7.666;2022-08-18T01:02:56;19.10;91.20
31038;DHT22;17702;47.590;7.666;2022-08-18T01:05:43;19.10;91.30
31038;DHT22;17702;47.590;7.666;2022-08-18T01:08:12;19.00;91.10
31038;DHT22;17702;47.590;7.666;2022-08-18T01:10:42;19.00;91.10
31038;DHT22;17702;47.590;7.666;2022-08-18T01:13:09;19.00;90.70
31038;DHT22;17702;47.590;7.666;2022-08-18T01:15:35;18.90;90.80
31038;DHT22;17702;47.590;7.666;2022-08-18T01:18:10;18.80;90.80
31038;DHT22;17702;47.590;7.666;2022-08-18T01:21:21;18.80;91.60
31038;DHT22;17702;47.590;7.666;2022-08-18T01:24:08;18.80;91.70
31038;DHT22;17702;47.590;7.666;2022-08-18T01:26:39;18.70;91.40
31038;DHT22;17702;47.590;7.666;2022-08-18T01:29:15;18.70;91.20
31038;DHT22;17702;47.590;7.666;2022-08-18T01:31:49;18.70;91.30
31038;DHT22;17702;47.590;7.666;2022-08-18T01:34:20;18.70;91.90
31038;DHT22;17702;47.590;7.666;2022-08-18T01:36:47;18.80;91.60
31038;DHT22;17702;47.590;7.666;2022-08-18T01:39:13;18.80;91.70
31038;DHT22;17702;47.590;7.666;2022-08-18T01:41:39;18.80;91.60
31038;DHT22;17702;47.590;7.666;2022-08-18T01:44:05;18.80;91.40
31038;DHT22;17702;47.590;7.666;2022-08-18T01:46:34;18.80;91.90
31038;DHT22;17702;47.590;7.666;2022-08-18T01:49:00;18.90;91.80
31038;DHT22;17702;47.590;7.666;2022-08-18T01:51:29;18.80;91.90
31038;DHT22;17702;47.590;7.666;2022-08-18T01:53:57;18.90;91.60
31038;DHT22;17702;47.590;7.666;2022-08-18T01:56:24;18.90;91.40
31038;DHT22;17702;47.590;7.666;2022-08-18T01:58:53;18.90;91.60
31038;DHT22;17702;47.590;7.666;2022-08-18T02:01:19;18.90;91.70
31038;DHT22;17702;47.590;7.666;2022-08-18T02:03:50;18.90;91.80
31038;DHT22;17702;47.590;7.666;2022-08-18T02:06:17;18.90;91.60
31038;DHT22;17702;47.590;7.666;2022-08-18T02:08:44;18.90;91.20
31038;DHT22;17702;47.590;7.666;2022-08-18T02:11:10;18.90;91.60
31038;DHT22;17702;47.590;7.666;2022-08-18T02:13:37;18.90;91.60
31038;DHT22;17702;47.590;7.666;2022-08-18T02:16:03;18.90;91.60
31038;DHT22;17702;47.590;7.666;2022-08-18T02:18:31;18.90;91.60
31038;DHT22;17702;47.590;7.666;2022-08-18T02:21:03;18.90;91.10
31038;DHT22;17702;47.590;7.666;2022-08-18T02:23:29;18.80;91.30
31038;DHT22;17702;47.590;7.666;2022-08-18T02:25:55;18.80;91.60
31038;DHT22;17702;47.590;7.666;2022-08-18T02:28:21;18.80;91.50
31038;DHT22;17702;47.590;7.666;2022-08-18T02:30:46;18.90;91.40
31038;DHT22;17702;47.590;7.666;2022-08-18T02:33:12;18.90;91.80
31038;DHT22;17702;47.590;7.666;2022-08-18T02:35:38;18.90;91.60
31038;DHT22;17702;47.590;7.666;2022-08-18T02:38:06;18.90;91.80
31038;DHT22;17702;47.590;7.666;2022-08-18T02:40:33;18.90;91.80
31038;DHT22;17702;47.590;7.666;2022-08-18T02:43:03;18.90;91.80
31038;DHT22;17702;47.590;7.666;2022-08-18T02:45:29;18.90;91.70
31038;DHT22;17702;47.590;7.666;2022-08-18T02:47:55;18.90;91.50
31038;DHT22;17702;47.590;7.666;2022-08-18T02:50:21;18.80;91.40
31038;DHT22;17702;47.590;7.666;2022-08-18T02:52:48;18.90;91.70
31038;DHT22;17702;47.590;7.666;2022-08-18T02:55:14;18.90;91.90
31038;DHT22;17702;47.590;7.666;2022-08-18T02:57:45;18.90;91.90
31038;DHT22;17702;47.590;7.666;2022-08-18T03:00:12;18.90;91.70
31038;DHT22;17702;47.590;7.666;2022-08-18T03:02:44;18.90;91.90
31038;DHT22;17702;47.590;7.666;2022-08-18T03:05:09;18.90;91.70
31038;DHT22;17702;47.590;7.666;2022-08-18T03:07:35;18.90;91.60
31038;DHT22;17702;47.590;7.666;2022-08-18T03:10:01;18.90;91.30
31038;DHT22;17702;47.590;7.666;2022-08-18T03:12:26;18.90;91.50
31038;DHT22;17702;47.590;7.666;2022-08-18T03:14:52;18.90;91.80
31038;DHT22;17702;47.590;7.666;2022-08-18T03:17:17;18.90;91.90
31038;DHT22;17702;47.590;7.666;2022-08-18T03:19:43;19.00;92.10
31038;DHT22;17702;47.590;7.666;2022-08-18T03:22:10;19.00;91.90
31038;DHT22;17702;47.590;7.666;2022-08-18T03:24:36;19.00;91.90
31038;DHT22;17702;47.590;7.666;2022-08-18T03:27:04;19.00;92.10
31038;DHT22;17702;47.590;7.666;2022-08-18T03:29:31;18.90;92.00
31038;DHT22;17702;47.590;7.666;2022-08-18T03:31:57;18.90;92.40
31038;DHT22;17702;47.590;7.666;2022-08-18T03:34:23;18.90;92.20
31038;DHT22;17702;47.590;7.666;2022-08-18T03:36:49;18.80;92.10
31038;DHT22;17702;47.590;7.666;2022-08-18T03:39:16;18.90;92.30
31038;DHT22;17702;47.590;7.666;2022-08-18T03:41:43;18.90;92.00
31038;DHT22;17702;47.590;7.666;2022-08-18T03:44:10;18.90;92.30
31038;DHT22;17702;47.590;7.666;2022-08-18T03:46:38;18.90;92.40
31038;DHT22;17702;47.590;7.666;2022-08-18T03:49:04;18.80;91.80
31038;DHT22;17702;47.590;7.666;2022-08-18T03:51:33;18.80;92.00
31038;DHT22;17702;47.590;7.666;2022-08-18T03:54:01;18.90;92.10
31038;DHT22;17702;47.590;7.666;2022-08-18T03:56:30;18.90;91.70
31038;DHT22;17702;47.590;7.666;2022-08-18T03:59:02;18.80;91.80
31038;DHT22;17702;47.590;7.666;2022-08-18T04:01:31;18.80;92.20
31038;DHT22;17702;47.590;7.666;2022-08-18T04:04:00;18.80;91.40
31038;DHT22;17702;47.590;7.666;2022-08-18T04:06:32;18.80;92.10
31038;DHT22;17702;47.590;7.666;2022-08-18T04:09:01;18.70;91.60
31038;DHT22;17702;47.590;7.666;2022-08-18T04:11:27;18.70;91.40
31038;DHT22;17702;47.590;7.666;2022-08-18T04:13:54;18.70;91.70
31038;DHT22;17702;47.590;7.666;2022-08-18T04:16:23;18.70;91.50
31038;DHT22;17702;47.590;7.666;2022-08-18T04:18:49;18.70;92.50
31038;DHT22;17702;47.590;7.666;2022-08-18T04:21:15;18.80;92.30
31038;DHT22;17702;47.590;7.666;2022-08-18T04:23:41;18.80;92.20
31038;DHT22;17702;47.590;7.666;2022-08-18T04:26:08;18.80;92.50
31038;DHT22;17702;47.590;7.666;2022-08-18T04:28:34;18.80;92.70
31038;DHT22;17702;47.590;7.666;2022-08-18T04:31:06;18.80;92.10
31038;DHT22;17702;47.590;7.666;2022-08-18T04:33:33;18.80;91.80
31038;DHT22;17702;47.590;7.666;2022-08-18T04:35:58;18.80;92.00
31038;DHT22;17702;47.590;7.666;2022-08-18T04:38:31;18.80;91.90
31038;DHT22;17702;47.590;7.666;2022-08-18T04:40:57;18.70;92.30
31038;DHT22;17702;47.590;7.666;2022-08-18T04:43:23;18.80;92.70
31038;DHT22;17702;47.590;7.666;2022-08-18T04:45:48;18.80;92.20
31038;DHT22;17702;47.590;7.666;2022-08-18T04:48:15;18.90;92.50
31038;DHT22;17702;47.590;7.666;2022-08-18T04:50:42;18.80;92.90
31038;DHT22;17702;47.590;7.666;2022-08-18T04:53:08;18.80;92.40
31038;DHT22;17702;47.590;7.666;2022-08-18T04:55:54;18.70;92.50
31038;DHT22;17702;47.590;7.666;2022-08-18T04:58:21;18.80;92.80
31038;DHT22;17702;47.590;7.666;2022-08-18T05:00:56;18.80;92.40
31038;DHT22;17702;47.590;7.666;2022-08-18T05:03:22;18.80;92.50
31038;DHT22;17702;47.590;7.666;2022-08-18T05:05:57;18.80;92.60
31038;DHT22;17702;47.590;7.666;2022-08-18T05:08:24;18.80;92.50
31038;DHT22;17702;47.590;7.666;2022-08-18T05:10:54;18.80;92.80
31038;DHT22;17702;47.590;7.666;2022-08-18T05:13:23;18.80;92.90
31038;DHT22;17702;47.590;7.666;2022-08-18T05:15:58;18.80;92.70
31038;DHT22;17702;47.590;7.666;2022-08-18T05:18:31;18.90;92.30
31038;DHT22;17702;47.590;7.666;2022-08-18T05:20:58;18.90;92.60
31038;DHT22;17702;47.590;7.666;2022-08-18T05:23:24;19.00;92.50
31038;DHT22;17702;47.590;7.666;2022-08-18T05:25:56;19.00;92.40
31038;DHT22;17702;47.590;7.666;2022-08-18T05:28:22;19.10;92.30
31038;DHT22;17702;47.590;7.666;2022-08-18T05:30:48;19.00;92.90
31038;DHT22;17702;47.590;7.666;2022-08-18T05:33:13;19.00;92.50
31038;DHT22;17702;47.590;7.666;2022-08-18T05:35:46;19.10;92.70
31038;DHT22;17702;47.590;7.666;2022-08-18T05:38:38;19.00;93.10
31038;DHT22;17702;47.590;7.666;2022-08-18T05:41:10;19.10;92.80
31038;DHT22;17702;47.590;7.666;2022-08-18T05:43:38;19.00;92.80
31038;DHT22;17702;47.590;7.666;2022-08-18T05:46:05;19.10;92.60
31038;DHT22;17702;47.590;7.666;2022-08-18T05:48:32;19.10;93.00
31038;DHT22;17702;47.590;7.666;2022-08-18T05:51:08;19.10;92.70
31038;DHT22;17702;47.590;7.666;2022-08-18T05:53:35;19.10;92.30
31038;DHT22;17702;47.590;7.666;2022-08-18T05:56:24;19.10;92.90
31038;DHT22;17702;47.590;7.666;2022-08-18T05:59:09;19.10;92.80
31038;DHT22;17702;47.590;7.666;2022-08-18T06:01:44;19.20;92.70
31038;DHT22;17702;47.590;7.666;2022-08-18T06:04:19;19.20;92.60
31038;DHT22;17702;47.590;7.666;2022-08-18T06:06:46;19.20;92.20
31038;DHT22;17702;47.590;7.666;2022-08-18T06:09:20;19.30;92.50
31038;DHT22;17702;47.590;7.666;2022-08-18T06:11:49;19.20;92.90
31038;DHT22;17702;47.590;7.666;2022-08-18T06:14:15;19.20;92.80
31038;DHT22;17702;47.590;7.666;2022-08-18T06:17:00;19.20;92.90
31038;DHT22;17702;47.590;7.666;2022-08-18T06:19:56;19.10;92.50
31038;DHT22;17702;47.590;7.666;2022-08-18T06:28:08;19.30;92.80
31038;DHT22;17702;47.590;7.666;2022-08-18T06:36:36;19.50;91.90
31038;DHT22;17702;47.590;7.666;2022-08-18T06:39:16;19.40;92.50
31038;DHT22;17702;47.590;7.666;2022-08-18T06:41:47;19.40;92.60
31038;DHT22;17702;47.590;7.666;2022-08-18T06:44:33;19.50;92.00
31038;DHT22;17702;47.590;7.666;2022-08-18T06:50:05;19.50;92.20
31038;DHT22;17702;47.590;7.666;2022-08-18T06:52:37;19.50;92.30
31038;DHT22;17702;47.590;7.666;2022-08-18T06:55:07;19.40;92.90
31038;DHT22;17702;47.590;7.666;2022-08-18T06:57:35;19.50;92.90
31038;DHT22;17702;47.590;7.666;2022-08-18T07:02:49;19.50;91.80
31038;DHT22;17702;47.590;7.666;2022-08-18T07:05:27;19.40;92.90
31038;DHT22;17702;47.590;7.666;2022-08-18T07:10:44;19.40;93.00
31038;DHT22;17702;47.590;7.666;2022-08-18T07:13:19;19.40;93.00
31038;DHT22;17702;47.590;7.666;2022-08-18T07:15:45;19.40;92.50
31038;DHT22;17702;47.590;7.666;2022-08-18T07:18:14;19.30;92.50
31038;DHT22;17702;47.590;7.666;2022-08-18T07:20:47;19.30;93.50
31038;DHT22;17702;47.590;7.666;2022-08-18T07:26:02;19.40;92.80
31038;DHT22;17702;47.590;7.666;2022-08-18T07:28:33;19.40;92.90
31038;DHT22;17702;47.590;7.666;2022-08-18T07:31:40;19.40;92.90
31038;DHT22;17702;47.590;7.666;2022-08-18T07:34:35;19.40;92.00
31038;DHT22;17702;47.590;7.666;2022-08-18T07:37:25;19.50;93.10
31038;DHT22;17702;47.590;7.666;2022-08-18T07:40:03;19.50;93.20
31038;DHT22;17702;47.590;7.666;2022-08-18T07:42:58;19.60;93.00
31038;DHT22;17702;47.590;7.666;2022-08-18T07:50:51;19.50;93.00
31038;DHT22;17702;47.590;7.666;2022-08-18T07:56:22;19.60;92.20
31038;DHT22;17702;47.590;7.666;2022-08-18T07:59:00;19.60;92.50
31038;DHT22;17702;47.590;7.666;2022-08-18T08:01:53;19.70;91.70
31038;DHT22;17702;47.590;7.666;2022-08-18T08:04:43;19.70;91.70
31038;DHT22;17702;47.590;7.666;2022-08-18T08:07:40;19.70;92.20
31038;DHT22;17702;47.590;7.666;2022-08-18T08:13:32;19.80;91.90
31038;DHT22;17702;47.590;7.666;2022-08-18T08:16:24;19.80;91.40
31038;DHT22;17702;47.590;7.666;2022-08-18T08:22:04;19.90;92.00
31038;DHT22;17702;47.590;7.666;2022-08-18T08:25:04;20.00;93.00
31038;DHT22;17702;47.590;7.666;2022-08-18T08:28:07;20.00;92.30
31038;DHT22;17702;47.590;7.666;2022-08-18T08:30:54;20.10;91.50
31038;DHT22;17702;47.590;7.666;2022-08-18T08:36:10;20.10;92.80
31038;DHT22;17702;47.590;7.666;2022-08-18T08:38:42;20.20;92.30
31038;DHT22;17702;47.590;7.666;2022-08-18T08:41:12;20.20;92.10
31038;DHT22;17702;47.590;7.666;2022-08-18T08:44:01;20.30;91.60
31038;DHT22;17702;47.590;7.666;2022-08-18T08:46:29;20.30;90.80
31038;DHT22;17702;47.590;7.666;2022-08-18T08:51:50;20.40;91.00
31038;DHT22;17702;47.590;7.666;2022-08-18T08:54:25;20.50;92.20
31038;DHT22;17702;47.590;7.666;2022-08-18T08:56:54;20.50;91.50
31038;DHT22;17702;47.590;7.666;2022-08-18T08:59:22;20.50;91.20
31038;DHT22;17702;47.590;7.666;2022-08-18T09:02:14;20.50;91.50
31038;DHT22;17702;47.590;7.666;2022-08-18T09:04:54;20.60;92.00
31038;DHT22;17702;47.590;7.666;2022-08-18T09:10:35;20.60;92.30
31038;DHT22;17702;47.590;7.666;2022-08-18T09:13:44;20.70;91.20
31038;DHT22;17702;47.590;7.666;2022-08-18T09:19:06;20.80;90.70
31038;DHT22;17702;47.590;7.666;2022-08-18T09:24:39;21.00;90.60
31038;DHT22;17702;47.590;7.666;2022-08-18T09:30:00;21.30;90.00
31038;DHT22;17702;47.590;7.666;2022-08-18T09:35:28;21.90;88.80
31038;DHT22;17702;47.590;7.666;2022-08-18T09:38:14;22.00;86.70
31038;DHT22;17702;47.590;7.666;2022-08-18T09:41:20;22.00;85.00
31038;DHT22;17702;47.590;7.666;2022-08-18T09:44:10;21.90;86.10
31038;DHT22;17702;47.590;7.666;2022-08-18T09:57:38;21.90;84.70
31038;DHT22;17702;47.590;7.666;2022-08-18T10:07:47;21.90;84.60
31038;DHT22;17702;47.590;7.666;2022-08-18T10:21:19;21.90;85.70
31038;DHT22;17702;47.590;7.666;2022-08-18T10:29:07;21.70;86.50
31038;DHT22;17702;47.590;7.666;2022-08-18T10:34:45;21.60;87.30
31038;DHT22;17702;47.590;7.666;2022-08-18T10:37:13;21.60;88.80
31038;DHT22;17702;47.590;7.666;2022-08-18T10:39:45;21.60;87.60
31038;DHT22;17702;47.590;7.666;2022-08-18T10:44:48;21.70;88.20
31038;DHT22;17702;47.590;7.666;2022-08-18T10:47:29;21.80;88.30
31038;DHT22;17702;47.590;7.666;2022-08-18T10:49:56;21.80;86.70
31038;DHT22;17702;47.590;7.666;2022-08-18T11:06:47;22.20;84.40
31038;DHT22;17702;47.590;7.666;2022-08-18T11:09:23;22.30;83.60
31038;DHT22;17702;47.590;7.666;2022-08-18T11:11:51;22.30;83.90
31038;DHT22;17702;47.590;7.666;2022-08-18T11:19:20;22.30;84.30
31038;DHT22;17702;47.590;7.666;2022-08-18T11:21:48;22.40;84.00
31038;DHT22;17702;47.590;7.666;2022-08-18T11:24:15;22.40;83.10
31038;DHT22;17702;47.590;7.666;2022-08-18T11:27:03;22.30;83.90
31038;DHT22;17702;47.590;7.666;2022-08-18T11:32:19;22.30;83.90
31038;DHT22;17702;47.590;7.666;2022-08-18T11:38:04;22.20;83.50
31038;DHT22;17702;47.590;7.666;2022-08-18T11:53:25;22.00;84.20
31038;DHT22;17702;47.590;7.666;2022-08-18T11:58:52;22.00;84.60
31038;DHT22;17702;47.590;7.666;2022-08-18T12:04:09;22.00;84.90
31038;DHT22;17702;47.590;7.666;2022-08-18T12:09:47;22.10;87.30
31038;DHT22;17702;47.590;7.666;2022-08-18T12:12:16;22.20;85.00
31038;DHT22;17702;47.590;7.666;2022-08-18T12:17:27;22.30;85.90
31038;DHT22;17702;47.590;7.666;2022-08-18T12:19:54;22.40;84.90
31038;DHT22;17702;47.590;7.666;2022-08-18T12:22:28;22.50;83.00
31038;DHT22;17702;47.590;7.666;2022-08-18T12:24:58;22.50;81.10
31038;DHT22;17702;47.590;7.666;2022-08-18T12:27:26;22.50;82.30
31038;DHT22;17702;47.590;7.666;2022-08-18T12:29:54;22.60;81.00
31038;DHT22;17702;47.590;7.666;2022-08-18T12:32:21;22.80;81.40
31038;DHT22;17702;47.590;7.666;2022-08-18T12:34:48;23.00;80.80
31038;DHT22;17702;47.590;7.666;2022-08-18T12:37:16;23.10;80.00
31038;DHT22;17702;47.590;7.666;2022-08-18T12:39:42;23.20;79.80
31038;DHT22;17702;47.590;7.666;2022-08-18T12:42:09;23.30;78.90
31038;DHT22;17702;47.590;7.666;2022-08-18T12:44:35;23.30;79.70
31038;DHT22;17702;47.590;7.666;2022-08-18T12:47:06;23.40;77.90
31038;DHT22;17702;47.590;7.666;2022-08-18T12:49:35;23.40;79.70
31038;DHT22;17702;47.590;7.666;2022-08-18T12:52:00;23.50;79.60
31038;DHT22;17702;47.590;7.666;2022-08-18T12:54:26;23.50;79.40
31038;DHT22;17702;47.590;7.666;2022-08-18T12:56:54;23.60;77.50
31038;DHT22;17702;47.590;7.666;2022-08-18T12:59:20;23.60;77.20
31038;DHT22;17702;47.590;7.666;2022-08-18T13:01:46;23.70;79.10
31038;DHT22;17702;47.590;7.666;2022-08-18T13:04:12;23.70;80.60
31038;DHT22;17702;47.590;7.666;2022-08-18T13:06:41;23.70;80.30
31038;DHT22;17702;47.590;7.666;2022-08-18T13:09:09;23.70;78.60
31038;DHT22;17702;47.590;7.666;2022-08-18T13:11:34;23.60;78.30
31038;DHT22;17702;47.590;7.666;2022-08-18T13:14:00;23.60;78.20
31038;DHT22;17702;47.590;7.666;2022-08-18T13:16:26;23.50;79.20
31038;DHT22;17702;47.590;7.666;2022-08-18T13:18:55;23.40;77.20
31038;DHT22;17702;47.590;7.666;2022-08-18T13:21:20;23.30;78.00
31038;DHT22;17702;47.590;7.666;2022-08-18T13:23:46;23.30;79.00
31038;DHT22;17702;47.590;7.666;2022-08-18T13:26:33;23.20;79.30
31038;DHT22;17702;47.590;7.666;2022-08-18T13:29:01;23.10;78.50
31038;DHT22;17702;47.590;7.666;2022-08-18T13:31:27;23.10;80.10
31038;DHT22;17702;47.590;7.666;2022-08-18T13:33:55;23.10;79.50
31038;DHT22;17702;47.590;7.666;2022-08-18T13:36:22;23.20;80.80
31038;DHT22;17702;47.590;7.666;2022-08-18T13:38:48;23.30;78.80
31038;DHT22;17702;47.590;7.666;2022-08-18T13:41:14;23.30;78.80
31038;DHT22;17702;47.590;7.666;2022-08-18T13:43:42;23.40;78.50
31038;DHT22;17702;47.590;7.666;2022-08-18T13:46:10;23.40;79.40
31038;DHT22;17702;47.590;7.666;2022-08-18T13:48:37;23.40;78.30
31038;DHT22;17702;47.590;7.666;2022-08-18T13:51:05;23.40;78.00
31038;DHT22;17702;47.590;7.666;2022-08-18T13:53:32;23.40;79.10
31038;DHT22;17702;47.590;7.666;2022-08-18T13:55:58;23.40;78.80
31038;DHT22;17702;47.590;7.666;2022-08-18T13:58:27;23.40;79.70
31038;DHT22;17702;47.590;7.666;2022-08-18T14:00:59;23.30;78.40
31038;DHT22;17702;47.590;7.666;2022-08-18T14:03:27;23.20;79.10
31038;DHT22;17702;47.590;7.666;2022-08-18T14:05:52;23.20;81.20
31038;DHT22;17702;47.590;7.666;2022-08-18T14:08:23;23.20;78.30
31038;DHT22;17702;47.590;7.666;2022-08-18T14:10:52;23.10;77.20
31038;DHT22;17702;47.590;7.666;2022-08-18T14:13:19;23.00;80.20
31038;DHT22;17702;47.590;7.666;2022-08-18T14:15:45;23.00;81.50
31038;DHT22;17702;47.590;7.666;2022-08-18T14:18:11;22.90;81.10
31038;DHT22;17702;47.590;7.666;2022-08-18T14:20:37;22.90;81.40
31038;DHT22;17702;47.590;7.666;2022-08-18T14:23:22;22.90;82.20
31038;DHT22;17702;47.590;7.666;2022-08-18T14:26:06;22.90;81.20
31038;DHT22;17702;47.590;7.666;2022-08-18T14:28:50;23.00;82.40
31038;DHT22;17702;47.590;7.666;2022-08-18T14:31:16;22.90;83.40
31038;DHT22;17702;47.590;7.666;2022-08-18T14:33:43;23.00;80.60
31038;DHT22;17702;47.590;7.666;2022-08-18T14:36:09;22.90;80.20
31038;DHT22;17702;47.590;7.666;2022-08-18T14:38:36;22.90;81.20
31038;DHT22;17702;47.590;7.666;2022-08-18T14:41:04;23.00;80.80
31038;DHT22;17702;47.590;7.666;2022-08-18T14:43:31;22.80;80.30
31038;DHT22;17702;47.590;7.666;2022-08-18T14:45:58;22.90;80.90
31038;DHT22;17702;47.590;7.666;2022-08-18T14:48:24;22.90;81.70
31038;DHT22;17702;47.590;7.666;2022-08-18T14:50:53;22.90;80.40
31038;DHT22;17702;47.590;7.666;2022-08-18T14:53:22;22.90;77.90
31038;DHT22;17702;47.590;7.666;2022-08-18T14:55:49;22.90;79.00
31038;DHT22;17702;47.590;7.666;2022-08-18T14:58:21;22.90;80.90
31038;DHT22;17702;47.590;7.666;2022-08-18T15:00:50;22.90;79.20
31038;DHT22;17702;47.590;7.666;2022-08-18T15:03:16;23.00;79.40
31038;DHT22;17702;47.590;7.666;2022-08-18T15:05:42;23.00;79.20
31038;DHT22;17702;47.590;7.666;2022-08-18T15:08:07;23.00;80.10
31038;DHT22;17702;47.590;7.666;2022-08-18T15:10:33;23.00;80.70
31038;DHT22;17702;47.590;7.666;2022-08-18T15:12:59;23.00;80.80
31038;DHT22;17702;47.590;7.666;2022-08-18T15:15:26;23.00;80.60
31038;DHT22;17702;47.590;7.666;2022-08-18T15:17:52;23.00;80.10
31038;DHT22;17702;47.590;7.666;2022-08-18T15:20:19;23.00;81.20
31038;DHT22;17702;47.590;7.666;2022-08-18T15:22:45;23.00;81.90
31038;DHT22;17702;47.590;7.666;2022-08-18T15:25:30;23.00;81.50
31038;DHT22;17702;47.590;7.666;2022-08-18T15:28:22;22.90;82.00
31038;DHT22;17702;47.590;7.666;2022-08-18T15:30:49;22.90;81.90
31038;DHT22;17702;47.590;7.666;2022-08-18T15:33:16;22.90;81.80
31038;DHT22;17702;47.590;7.666;2022-08-18T15:35:43;22.90;82.80
31038;DHT22;17702;47.590;7.666;2022-08-18T15:38:11;22.90;82.50
31038;DHT22;17702;47.590;7.666;2022-08-18T15:41:05;23.00;82.20
31038;DHT22;17702;47.590;7.666;2022-08-18T15:43:31;23.00;81.00
31038;DHT22;17702;47.590;7.666;2022-08-18T15:45:59;22.90;82.30
31038;DHT22;17702;47.590;7.666;2022-08-18T15:48:26;22.90;82.00
31038;DHT22;17702;47.590;7.666;2022-08-18T15:50:52;22.90;80.60
31038;DHT22;17702;47.590;7.666;2022-08-18T15:53:21;22.80;82.40
31038;DHT22;17702;47.590;7.666;2022-08-18T15:55:47;22.80;82.60
31038;DHT22;17702;47.590;7.666;2022-08-18T15:58:13;22.80;82.60
31038;DHT22;17702;47.590;7.666;2022-08-18T16:00:42;22.80;83.40
31038;DHT22;17702;47.590;7.666;2022-08-18T16:03:10;22.80;83.90
31038;DHT22;17702;47.590;7.666;2022-08-18T16:05:45;22.80;83.20
31038;DHT22;17702;47.590;7.666;2022-08-18T16:08:11;22.80;83.40
31038;DHT22;17702;47.590;7.666;2022-08-18T16:10:40;22.80;81.70
31038;DHT22;17702;47.590;7.666;2022-08-18T16:13:07;22.80;81.10
31038;DHT22;17702;47.590;7.666;2022-08-18T16:15:38;22.70;81.90
31038;DHT22;17702;47.590;7.666;2022-08-18T16:18:05;22.70;82.80
31038;DHT22;17702;47.590;7.666;2022-08-18T16:20:32;22.70;83.10
31038;DHT22;17702;47.590;7.666;2022-08-18T16:22:57;22.70;83.20
31038;DHT22;17702;47.590;7.666;2022-08-18T16:25:24;22.60;83.40
31038;DHT22;17702;47.590;7.666;2022-08-18T16:27:49;22.60;81.00
31038;DHT22;17702;47.590;7.666;2022-08-18T16:30:19;22.60;80.30
31038;DHT22;17702;47.590;7.666;2022-08-18T16:32:46;22.50;81.90
31038;DHT22;17702;47.590;7.666;2022-08-18T16:35:12;22.50;82.30
31038;DHT22;17702;47.590;7.666;2022-08-18T16:37:38;22.50;83.00
31038;DHT22;17702;47.590;7.666;2022-08-18T16:40:04;22.50;83.30
31038;DHT22;17702;47.590;7.666;2022-08-18T16:42:30;22.50;84.10
31038;DHT22;17702;47.590;7.666;2022-08-18T16:45:01;22.50;84.70
31038;DHT22;17702;47.590;7.666;2022-08-18T16:47:28;22.50;85.40
31038;DHT22;17702;47.590;7.666;2022-08-18T16:49:53;22.50;85.40
31038;DHT22;17702;47.590;7.666;2022-08-18T16:52:19;22.40;85.20
31038;DHT22;17702;47.590;7.666;2022-08-18T16:54:46;22.40;86.30
31038;DHT22;17702;47.590;7.666;2022-08-18T16:57:12;22.40;85.00
31038;DHT22;17702;47.590;7.666;2022-08-18T16:59:38;22.40;84.00
31038;DHT22;17702;47.590;7.666;2022-08-18T17:02:23;22.30;84.60
31038;DHT22;17702;47.590;7.666;2022-08-18T17:05:08;22.30;84.70
31038;DHT22;17702;47.590;7.666;2022-08-18T17:07:36;22.30;84.70
31038;DHT22;17702;47.590;7.666;2022-08-18T17:10:03;22.20;85.60
31038;DHT22;17702;47.590;7.666;2022-08-18T17:12:30;22.20;86.00
31038;DHT22;17702;47.590;7.666;2022-08-18T17:14:55;22.20;86.00
31038;DHT22;17702;47.590;7.666;2022-08-18T17:17:21;22.20;86.10
31038;DHT22;17702;47.590;7.666;2022-08-18T17:19:48;22.20;85.80
31038;DHT22;17702;47.590;7.666;2022-08-18T17:22:15;22.20;85.30
31038;DHT22;17702;47.590;7.666;2022-08-18T17:24:42;22.10;86.80
31038;DHT22;17702;47.590;7.666;2022-08-18T17:27:21;22.10;85.80
31038;DHT22;17702;47.590;7.666;2022-08-18T17:30:02;22.00;87.20
31038;DHT22;17702;47.590;7.666;2022-08-18T17:35:07;22.00;87.50
31038;DHT22;17702;47.590;7.666;2022-08-18T17:37:33;22.00;87.70
31038;DHT22;17702;47.590;7.666;2022-08-18T17:40:09;22.10;87.20
31038;DHT22;17702;47.590;7.666;2022-08-18T17:42:37;22.00;87.20
31038;DHT22;17702;47.590;7.666;2022-08-18T17:45:07;22.10;87.60
31038;DHT22;17702;47.590;7.666;2022-08-18T17:50:34;22.00;87.90
31038;DHT22;17702;47.590;7.666;2022-08-18T17:53:20;22.00;88.00
31038;DHT22;17702;47.590;7.666;2022-08-18T17:55:53;22.00;88.40
31038;DHT22;17702;47.590;7.666;2022-08-18T17:58:36;22.00;88.30
31038;DHT22;17702;47.590;7.666;2022-08-18T18:01:06;21.90;88.90
31038;DHT22;17702;47.590;7.666;2022-08-18T18:03:32;21.90;88.30
31038;DHT22;17702;47.590;7.666;2022-08-18T18:11:13;21.90;89.00
31038;DHT22;17702;47.590;7.666;2022-08-18T18:13:39;21.90;89.20
31038;DHT22;17702;47.590;7.666;2022-08-18T18:16:25;21.90;89.50
31038;DHT22;17702;47.590;7.666;2022-08-18T18:18:58;21.80;89.30
31038;DHT22;17702;47.590;7.666;2022-08-18T18:21:24;21.80;89.30
31038;DHT22;17702;47.590;7.666;2022-08-18T18:24:11;21.70;89.50
31038;DHT22;17702;47.590;7.666;2022-08-18T18:26:45;21.60;90.30
31038;DHT22;17702;47.590;7.666;2022-08-18T18:29:19;21.50;90.60
31038;DHT22;17702;47.590;7.666;2022-08-18T18:34:28;21.40;90.90